TAF KUTS
KUTS 280525Z 2806/2906 VRB03KT 4SM -SHRA BR FEW004 OVC025 TEMPO 2806/2809 OVC004 FM280900 VRB03KT 5SM BR OVC004 FM281500 35005KT P6SM SCT004 BKN014 FM282100 35006KT P6SM SCT030 FM290000 VRB04KT P6SM FEW250=
METAR KUTS
WC KUTS
WS KUTS
WV KUTS